Time;durP1;ratioP1;P1;durP2;ratioP2;P2;SDS_P1;SDS_P2;PMS_P1;PMS_P2;Temp;Humidity;BMP_temperature;BMP_pressure;BME280_temperature;BME280_humidity;BME280_pressure;Samples;Min_cycle;Max_cycle;Signal;HPM_P1;HPM_P2
2021/01/09 00:01:48;;;;;;;24.85;13.90;;;1.40;1.00;;;;;;5074099;28;20226;-74
2021/01/09 00:04:14;;;;;;;27.90;16.77;;;1.50;99.90;;;;;;5074209;28;20208;-73
2021/01/09 00:06:41;;;;;;;32.03;15.90;;;1.50;99.90;;;;;;5074864;28;20202;-72
2021/01/09 00:09:08;;;;;;;25.95;14.75;;;1.60;99.90;;;;;;5074687;28;20207;-72
2021/01/09 00:11:34;;;;;;;29.73;17.17;;;1.60;99.90;;;;;;5074557;28;20199;-73
2021/01/09 00:14:00;;;;;;;25.55;15.38;;;1.60;99.90;;;;;;5073912;28;20250;-72
2021/01/09 00:16:26;;;;;;;29.13;17.88;;;1.40;99.90;;;;;;5074886;28;20244;-73
2021/01/09 00:18:53;;;;;;;29.55;16.25;;;1.40;99.90;;;;;;5074116;28;20226;-73
2021/01/09 00:21:19;;;;;;;25.58;16.52;;;1.40;99.90;;;;;;5074130;28;20216;-72
2021/01/09 00:23:46;;;;;;;40.35;20.20;;;1.40;99.90;;;;;;5074438;28;20225;-72
2021/01/09 00:26:13;;;;;;;39.35;19.73;;;1.40;99.90;;;;;;5074142;28;20224;-72
2021/01/09 00:28:39;;;;;;;28.50;17.17;;;1.40;99.90;;;;;;5074276;28;20204;-73
2021/01/09 00:31:06;;;;;;;39.28;20.15;;;1.50;99.90;;;;;;5074170;28;20673;-72
2021/01/09 00:33:32;;;;;;;29.27;17.10;;;1.50;99.90;;;;;;5073742;28;20304;-72
2021/01/09 00:35:59;;;;;;;31.13;17.55;;;1.50;99.90;;;;;;5073339;28;20206;-73
2021/01/09 00:38:25;;;;;;;20.73;14.95;;;1.60;99.90;;;;;;5073815;28;20205;-72
2021/01/09 00:40:51;;;;;;;31.17;17.67;;;1.50;99.90;;;;;;5073697;28;20246;-72
2021/01/09 00:43:18;;;;;;;32.72;18.48;;;1.40;99.90;;;;;;5073512;28;20224;-72
2021/01/09 00:45:44;;;;;;;39.67;17.17;;;1.50;99.90;;;;;;5073277;28;20197;-72
2021/01/09 00:48:10;;;;;;;38.08;17.08;;;1.50;99.90;;;;;;5073729;28;20196;-72
2021/01/09 00:50:37;;;;;;;36.67;19.23;;;1.50;99.90;;;;;;5072896;28;20199;-72
2021/01/09 00:53:03;;;;;;;30.38;17.45;;;1.50;99.90;;;;;;5073221;28;20216;-72
2021/01/09 00:55:29;;;;;;;27.70;15.85;;;1.40;99.90;;;;;;5073217;28;20242;-72
2021/01/09 00:57:55;;;;;;;28.08;16.63;;;1.40;99.90;;;;;;5073224;28;20266;-72
2021/01/09 01:00:22;;;;;;;27.77;15.63;;;1.30;99.90;;;;;;5073249;28;20216;-72
2021/01/09 01:02:49;;;;;;;26.38;15.75;;;1.40;99.90;;;;;;5073225;28;20274;-72
2021/01/09 01:05:15;;;;;;;25.17;15.10;;;1.40;1.00;;;;;;5073156;28;20202;-72
2021/01/09 01:07:41;;;;;;;24.17;16.08;;;1.40;1.00;;;;;;5072981;28;20696;-72
2021/01/09 01:10:08;;;;;;;20.80;15.38;;;1.50;1.00;;;;;;5073387;28;20192;-72
2021/01/09 01:12:34;;;;;;;18.38;12.80;;;1.40;1.00;;;;;;5073109;28;20216;-72
2021/01/09 01:15:01;;;;;;;25.73;15.63;;;1.40;1.00;;;;;;5072673;28;20570;-72
2021/01/09 01:17:28;;;;;;;27.58;16.13;;;1.50;1.00;;;;;;5072661;28;20192;-72
2021/01/09 01:19:54;;;;;;;22.10;14.73;;;1.50;1.00;;;;;;5072947;28;20218;-71
2021/01/09 01:22:20;;;;;;;32.38;19.13;;;1.50;1.00;;;;;;5072775;28;20712;-72
2021/01/09 01:24:46;;;;;;;34.13;17.80;;;1.40;1.00;;;;;;5073304;28;20231;-72
2021/01/09 01:27:13;;;;;;;42.00;18.88;;;1.40;1.00;;;;;;5072778;28;20197;-72
2021/01/09 01:29:39;;;;;;;28.58;16.13;;;1.40;99.90;;;;;;5072484;28;20207;-72
2021/01/09 01:32:05;;;;;;;35.42;19.40;;;1.30;99.90;;;;;;5072358;28;20224;-72
2021/01/09 01:34:32;;;;;;;32.65;17.65;;;1.30;99.90;;;;;;5072444;28;20203;-72
2021/01/09 01:36:58;;;;;;;41.20;20.52;;;1.20;1.00;;;;;;5072221;28;20250;-72
2021/01/09 01:39:24;;;;;;;30.00;16.50;;;1.10;1.00;;;;;;5072444;28;20206;-72
2021/01/09 01:41:51;;;;;;;31.55;18.92;;;1.10;1.00;;;;;;5072060;28;20223;-72
2021/01/09 01:44:17;;;;;;;29.17;17.38;;;1.20;1.00;;;;;;5072041;28;20203;-72
2021/01/09 01:46:45;;;;;;;28.98;15.43;;;1.20;1.00;;;;;;5072268;28;20210;-72
2021/01/09 01:49:11;;;;;;;29.38;18.10;;;1.30;1.00;;;;;;5072832;28;20461;-72
2021/01/09 01:51:38;;;;;;;25.67;16.65;;;1.30;1.00;;;;;;5072622;28;20242;-72
2021/01/09 01:54:04;;;;;;;40.55;21.15;;;1.30;1.00;;;;;;5072364;28;20196;-72
2021/01/09 01:56:30;;;;;;;43.38;20.00;;;1.40;1.00;;;;;;5072130;28;20231;-72
2021/01/09 01:58:56;;;;;;;38.78;20.15;;;1.40;1.00;;;;;;5072135;28;20192;-73
2021/01/09 02:01:25;;;;;;;41.15;19.67;;;1.30;1.00;;;;;;5071676;28;20213;-72
2021/01/09 02:03:51;;;;;;;42.08;19.83;;;1.30;1.00;;;;;;5072628;28;20227;-72
2021/01/09 02:06:23;;;;;;;35.22;17.92;;;1.30;1.00;;;;;;5072492;28;20196;-72
2021/01/09 02:09:00;;;;;;;36.17;20.35;;;1.20;1.00;;;;;;5072106;28;20203;-72
2021/01/09 02:11:33;;;;;;;36.65;20.83;;;1.30;1.00;;;;;;5072552;28;20192;-72
2021/01/09 02:14:02;;;;;;;32.78;18.88;;;1.40;1.00;;;;;;5072281;28;20202;-72
2021/01/09 02:16:29;;;;;;;41.70;21.98;;;1.30;1.00;;;;;;5071629;28;20197;-72
2021/01/09 02:18:56;;;;;;;48.80;25.05;;;1.20;1.00;;;;;;5072108;28;20204;-71
2021/01/09 02:21:39;;;;;;;40.58;20.45;;;1.30;1.00;;;;;;5072414;28;20216;-74
2021/01/09 02:24:17;;;;;;;38.38;20.20;;;1.20;1.00;;;;;;5072180;28;20205;-73
2021/01/09 02:26:45;;;;;;;39.92;20.17;;;1.20;1.00;;;;;;5072697;28;20202;-72
2021/01/09 02:29:14;;;;;;;46.35;21.27;;;1.10;1.00;;;;;;5072366;28;20192;-72
2021/01/09 02:31:48;;;;;;;48.65;22.63;;;1.00;1.00;;;;;;5071542;28;20196;-72
2021/01/09 02:34:17;;;;;;;45.42;21.15;;;0.90;1.00;;;;;;5071641;28;20572;-73
2021/01/09 02:36:44;;;;;;;38.47;20.42;;;0.90;15.70;;;;;;5071724;28;20204;-75
2021/01/09 02:39:10;;;;;;;42.20;21.15;;;0.90;71.00;;;;;;5072032;28;20196;-72
2021/01/09 02:41:40;;;;;;;35.20;18.17;;;0.90;99.90;;;;;;5071991;28;20580;-72
2021/01/09 02:44:08;;;;;;;34.55;19.02;;;0.90;99.90;;;;;;5072035;28;20192;-72
2021/01/09 02:46:34;;;;;;;44.25;22.95;;;1.00;99.90;;;;;;5072414;28;20197;-78
2021/01/09 02:49:01;;;;;;;42.75;20.58;;;1.00;99.90;;;;;;5072110;28;20201;-72
2021/01/09 02:51:27;;;;;;;39.22;19.95;;;1.00;99.90;;;;;;5071800;28;20189;-72
2021/01/09 02:53:53;;;;;;;39.15;20.65;;;1.10;99.90;;;;;;5071613;28;20216;-72
2021/01/09 02:56:19;;;;;;;32.88;16.15;;;1.20;99.90;;;;;;5071720;28;20201;-72
2021/01/09 02:58:46;;;;;;;33.10;19.20;;;1.20;99.90;;;;;;5072142;28;20222;-73
2021/01/09 03:01:12;;;;;;;33.42;18.55;;;1.20;99.90;;;;;;5071611;28;20615;-73
2021/01/09 03:03:38;;;;;;;33.65;18.40;;;1.20;99.90;;;;;;5071923;28;20224;-72
2021/01/09 03:06:04;;;;;;;33.47;19.27;;;1.20;94.00;;;;;;5071365;28;20785;-71
2021/01/09 03:08:31;;;;;;;37.95;19.88;;;1.20;96.40;;;;;;5071516;28;20207;-71
2021/01/09 03:10:57;;;;;;;36.47;20.05;;;1.20;36.50;;;;;;5071559;28;20600;-71
2021/01/09 03:13:23;;;;;;;25.10;16.17;;;1.20;9.90;;;;;;5072971;28;20707;-70
2021/01/09 03:15:50;;;;;;;30.45;18.20;;;1.30;16.70;;;;;;5074601;28;20197;-70
2021/01/09 03:18:16;;;;;;;27.63;18.95;;;1.30;1.00;;;;;;5074769;28;20665;-71
2021/01/09 03:20:42;;;;;;;43.03;20.67;;;1.30;1.00;;;;;;5074768;28;20224;-71
2021/01/09 03:23:08;;;;;;;44.47;22.65;;;1.30;1.00;;;;;;5074934;28;20223;-71
2021/01/09 03:25:34;;;;;;;52.25;24.10;;;1.20;1.00;;;;;;5074469;28;20193;-71
2021/01/09 03:28:01;;;;;;;46.28;21.85;;;1.20;1.00;;;;;;5074885;28;20579;-71
2021/01/09 03:30:27;;;;;;;45.08;23.05;;;1.30;1.00;;;;;;5074770;28;20275;-72
2021/01/09 03:32:54;;;;;;;28.23;19.40;;;1.40;1.00;;;;;;5074159;28;20217;-71
2021/01/09 03:35:22;;;;;;;34.38;21.67;;;1.30;1.00;;;;;;5074353;28;20193;-72
2021/01/09 03:37:48;;;;;;;32.28;20.20;;;1.40;1.00;;;;;;5074200;28;20208;-72
2021/01/09 03:40:14;;;;;;;48.50;19.92;;;1.40;1.00;;;;;;5074405;28;20293;-71
2021/01/09 03:42:40;;;;;;;54.50;24.92;;;1.40;1.00;;;;;;5074059;28;20237;-71
2021/01/09 03:45:07;;;;;;;52.42;23.92;;;1.30;1.00;;;;;;5073395;28;20226;-71
2021/01/09 03:47:33;;;;;;;54.70;25.08;;;1.30;1.00;;;;;;5073821;28;20203;-71
2021/01/09 03:50:00;;;;;;;52.28;24.40;;;1.40;1.00;;;;;;5074173;28;20197;-71
2021/01/09 03:52:26;;;;;;;46.85;23.95;;;1.40;1.00;;;;;;5074236;28;20213;-71
2021/01/09 03:54:52;;;;;;;55.20;25.60;;;1.30;1.00;;;;;;5073814;28;20197;-72
2021/01/09 03:57:18;;;;;;;68.28;26.60;;;1.30;1.00;;;;;;5073979;28;20567;-72
2021/01/09 03:59:45;;;;;;;50.28;26.70;;;1.30;1.00;;;;;;5073846;28;20201;-71
2021/01/09 04:02:11;;;;;;;74.10;30.40;;;1.30;1.00;;;;;;5073321;28;20761;-71
2021/01/09 04:04:37;;;;;;;64.68;30.50;;;1.30;1.00;;;;;;5073965;28;20198;-71
2021/01/09 04:07:04;;;;;;;48.95;24.70;;;1.40;1.00;;;;;;5073757;28;20567;-72
2021/01/09 04:09:30;;;;;;;39.78;19.90;;;1.40;1.00;;;;;;5073848;28;20196;-71
2021/01/09 04:11:56;;;;;;;36.22;18.33;;;1.40;1.00;;;;;;5073645;28;20212;-71
2021/01/09 04:14:22;;;;;;;45.28;22.30;;;1.40;1.00;;;;;;5073196;28;20200;-72
2021/01/09 04:16:48;;;;;;;35.13;20.80;;;1.40;1.00;;;;;;5073341;28;20196;-71
2021/01/09 04:19:14;;;;;;;51.30;23.35;;;1.30;99.90;;;;;;5073601;28;20201;-72
2021/01/09 04:21:44;;;;;;;50.15;23.67;;;1.30;1.00;;;;;;5073906;28;20771;-71
2021/01/09 04:24:11;;;;;;;38.95;21.33;;;1.30;1.00;;;;;;5073846;28;20197;-71
2021/01/09 04:26:37;;;;;;;41.78;22.25;;;1.30;99.90;;;;;;5072955;28;20196;-71
2021/01/09 04:29:04;;;;;;;50.50;23.75;;;1.20;99.90;;;;;;5073082;28;20198;-71
2021/01/09 04:31:30;;;;;;;39.17;20.73;;;1.20;99.90;;;;;;5073287;28;20193;-71
2021/01/09 04:33:56;;;;;;;50.30;23.33;;;1.20;99.90;;;;;;5073268;28;20216;-71
2021/01/09 04:36:22;;;;;;;41.95;21.48;;;1.30;1.00;;;;;;5073094;28;20657;-71
2021/01/09 04:38:49;;;;;;;44.85;20.65;;;1.20;1.00;;;;;;5074021;28;20204;-71
2021/01/09 04:41:20;;;;;;;34.80;18.02;;;1.20;1.00;;;;;;5073231;28;20765;-71
2021/01/09 04:43:47;;;;;;;44.20;19.92;;;1.20;1.00;;;;;;5072686;28;20216;-71
2021/01/09 04:46:15;;;;;;;50.25;25.58;;;1.20;1.00;;;;;;5072821;28;20205;-71
2021/01/09 04:48:42;;;;;;;43.72;20.33;;;1.20;1.00;;;;;;5073033;28;20203;-71
2021/01/09 04:51:08;;;;;;;29.27;17.05;;;1.30;1.00;;;;;;5072861;28;20196;-71
2021/01/09 04:53:36;;;;;;;33.80;18.73;;;1.20;1.00;;;;;;5072804;28;20562;-71
2021/01/09 04:56:02;;;;;;;26.88;15.88;;;1.30;1.00;;;;;;5072374;28;20287;-71
2021/01/09 04:58:31;;;;;;;31.67;15.25;;;1.30;1.00;;;;;;5072633;28;20205;-71
2021/01/09 05:00:57;;;;;;;41.35;21.08;;;1.20;99.90;;;;;;5072588;28;20212;-71
2021/01/09 05:03:24;;;;;;;30.70;17.30;;;1.20;99.90;;;;;;5072732;28;20235;-71
2021/01/09 05:05:50;;;;;;;35.88;19.35;;;1.20;99.90;;;;;;5072410;28;20249;-71
2021/01/09 05:08:16;;;;;;;37.67;19.17;;;1.30;1.00;;;;;;5072321;28;20201;-71
2021/01/09 05:10:43;;;;;;;46.53;20.50;;;1.30;1.00;;;;;;5072469;28;20204;-71
2021/01/09 05:13:09;;;;;;;27.23;16.73;;;1.20;1.00;;;;;;5072111;28;20731;-71
2021/01/09 05:15:37;;;;;;;46.63;21.90;;;1.30;1.00;;;;;;5071972;28;20196;-71
2021/01/09 05:18:04;;;;;;;30.90;17.83;;;1.30;1.00;;;;;;5072619;28;20200;-71
2021/01/09 05:20:30;;;;;;;38.10;18.45;;;1.40;1.00;;;;;;5072246;28;20245;-71
2021/01/09 05:22:58;;;;;;;35.97;18.95;;;1.40;1.00;;;;;;5072153;28;20223;-71
2021/01/09 05:25:25;;;;;;;26.95;16.23;;;1.40;99.90;;;;;;5071785;28;20204;-72
2021/01/09 05:27:52;;;;;;;42.00;22.35;;;1.30;99.90;;;;;;5072422;28;20677;-72
2021/01/09 05:30:18;;;;;;;47.63;22.75;;;1.30;99.90;;;;;;5072191;28;20606;-72
2021/01/09 05:32:45;;;;;;;44.15;22.45;;;1.20;99.90;;;;;;5071865;28;20217;-71
2021/01/09 05:35:13;;;;;;;49.20;22.27;;;1.20;99.90;;;;;;5071584;28;20196;-71
2021/01/09 05:37:39;;;;;;;30.20;16.48;;;1.20;1.00;;;;;;5071805;28;20208;-72
2021/01/09 05:40:06;;;;;;;31.60;17.15;;;1.20;1.00;;;;;;5071889;28;20614;-72
2021/01/09 05:42:34;;;;;;;25.17;15.15;;;1.20;99.90;;;;;;5072174;28;20223;-72
2021/01/09 05:45:00;;;;;;;35.80;17.48;;;1.20;99.90;;;;;;5071922;28;20209;-72
2021/01/09 05:47:28;;;;;;;28.65;16.40;;;1.30;1.00;;;;;;5072101;28;20253;-73
2021/01/09 05:49:56;;;;;;;35.80;16.85;;;1.40;1.00;;;;;;5071874;28;20522;-72
2021/01/09 05:52:23;;;;;;;38.50;18.65;;;1.30;99.90;;;;;;5071731;28;20216;-72
2021/01/09 05:54:54;;;;;;;36.40;17.00;;;1.30;99.90;;;;;;5071701;28;20200;-72
2021/01/09 05:57:20;;;;;;;40.22;19.40;;;1.30;99.90;;;;;;5072123;28;20204;-72
2021/01/09 05:59:46;;;;;;;33.08;16.60;;;1.30;99.90;;;;;;5071909;28;20337;-72
2021/01/09 06:02:13;;;;;;;41.80;20.02;;;1.20;99.90;;;;;;5071734;28;20599;-72
2021/01/09 06:04:43;;;;;;;31.63;16.15;;;1.20;99.90;;;;;;5071714;28;20202;-72
2021/01/09 06:07:15;;;;;;;39.50;16.00;;;1.30;99.90;;;;;;5071584;28;20637;-72
2021/01/09 06:09:47;;;;;;;41.17;18.77;;;1.20;99.90;;;;;;5072025;28;20199;-70
2021/01/09 06:12:14;;;;;;;34.72;18.25;;;1.30;99.90;;;;;;5071881;28;20213;-70
2021/01/09 06:14:43;;;;;;;34.17;16.23;;;1.30;99.90;;;;;;5071180;28;20239;-70
2021/01/09 06:17:10;;;;;;;33.33;16.83;;;1.20;99.90;;;;;;5071819;28;20272;-71
2021/01/09 06:19:37;;;;;;;33.00;17.52;;;1.20;99.90;;;;;;5071365;28;20215;-71
2021/01/09 06:22:04;;;;;;;28.35;16.35;;;1.10;99.90;;;;;;5071375;28;20216;-71
2021/01/09 06:24:31;;;;;;;29.92;17.80;;;1.10;99.90;;;;;;5071187;28;20196;-71
2021/01/09 06:26:59;;;;;;;33.75;17.70;;;1.20;99.90;;;;;;5071684;28;20196;-71
2021/01/09 06:29:27;;;;;;;29.95;14.57;;;1.20;99.90;;;;;;5071578;28;20581;-71
2021/01/09 06:31:55;;;;;;;30.05;17.02;;;1.30;99.90;;;;;;5071302;28;20199;-71
2021/01/09 06:34:23;;;;;;;33.15;17.17;;;1.30;99.90;;;;;;5071359;28;20201;-71
2021/01/09 06:36:54;;;;;;;48.55;21.73;;;1.20;99.90;;;;;;5071245;28;20794;-71
2021/01/09 06:39:21;;;;;;;30.10;15.98;;;1.10;99.90;;;;;;5071688;28;20196;-71
2021/01/09 06:41:51;;;;;;;32.08;14.77;;;1.10;99.90;;;;;;5071335;28;20212;-71
2021/01/09 06:44:20;;;;;;;30.02;17.00;;;1.10;99.90;;;;;;5071290;28;20201;-71
2021/01/09 06:46:46;;;;;;;25.80;15.35;;;1.10;1.00;;;;;;5070781;28;20200;-71
2021/01/09 06:49:17;;;;;;;29.05;17.38;;;1.20;1.00;;;;;;5074424;28;20192;-71
2021/01/09 06:51:55;;;;;;;34.90;19.13;;;1.30;1.00;;;;;;5075102;28;20192;-71
2021/01/09 06:54:44;;;;;;;40.50;19.70;;;1.20;1.00;;;;;;5075112;28;20257;-71
2021/01/09 06:57:16;;;;;;;45.15;20.38;;;1.20;1.00;;;;;;5075024;28;20207;-72
2021/01/09 06:59:43;;;;;;;35.42;17.45;;;1.30;1.00;;;;;;5075183;28;20204;-71
2021/01/09 07:02:14;;;;;;;37.22;16.95;;;1.40;1.00;;;;;;5074925;28;20251;-71
2021/01/09 07:05:00;;;;;;;42.45;21.75;;;1.40;1.00;;;;;;5074698;28;20203;-71
2021/01/09 07:07:35;;;;;;;46.85;21.33;;;1.40;1.00;;;;;;5074560;28;20192;-71
2021/01/09 07:10:10;;;;;;;37.50;18.10;;;1.30;99.90;;;;;;5067451;28;20200;-71
2021/01/09 07:12:41;;;;;;;40.70;19.30;;;1.40;1.00;;;;;;5074720;28;20277;-72
2021/01/09 07:15:08;;;;;;;41.42;20.63;;;1.40;99.90;;;;;;5074430;28;20208;-71
2021/01/09 07:17:38;;;;;;;47.35;18.75;;;1.40;99.90;;;;;;5074735;28;20250;-71
2021/01/09 07:20:07;;;;;;;51.97;22.05;;;1.50;99.90;;;;;;5074457;28;20203;-71
2021/01/09 07:22:37;;;;;;;36.92;17.77;;;1.50;99.90;;;;;;5074431;28;20592;-71
2021/01/09 07:25:06;;;;;;;29.23;16.55;;;1.50;99.90;;;;;;5074184;28;20203;-71
2021/01/09 07:27:35;;;;;;;31.17;16.40;;;1.50;99.90;;;;;;5074598;28;20262;-71
2021/01/09 07:30:11;;;;;;;41.75;19.80;;;1.50;99.90;;;;;;5074380;28;20203;-71
2021/01/09 07:32:41;;;;;;;46.13;20.90;;;1.40;99.90;;;;;;5074195;28;20604;-71
2021/01/09 07:35:08;;;;;;;36.97;17.30;;;1.40;99.90;;;;;;5074043;28;20201;-72
2021/01/09 07:37:39;;;;;;;37.20;20.42;;;1.40;99.90;;;;;;5074139;28;20204;-71
2021/01/09 07:40:13;;;;;;;27.92;16.02;;;1.40;99.90;;;;;;5074288;28;20283;-71
2021/01/09 07:42:40;;;;;;;18.27;11.57;;;1.30;99.90;;;;;;5074014;28;20269;-71
2021/01/09 07:45:09;;;;;;;43.30;16.85;;;1.30;99.90;;;;;;5073840;28;20653;-71
2021/01/09 07:47:39;;;;;;;36.20;16.92;;;1.40;99.90;;;;;;5074349;28;20200;-71
2021/01/09 07:50:07;;;;;;;32.03;15.50;;;1.40;99.90;;;;;;5074166;28;20207;-71
2021/01/09 07:52:34;;;;;;;25.38;12.70;;;1.50;99.90;;;;;;5074058;28;20208;-71
2021/01/09 07:55:00;;;;;;;17.02;12.13;;;1.40;99.90;;;;;;5073811;28;20196;-71
2021/01/09 07:57:27;;;;;;;26.27;11.82;;;1.40;99.90;;;;;;5073819;28;20203;-71
2021/01/09 08:00:01;;;;;;;22.55;14.77;;;1.40;99.90;;;;;;5073287;28;20200;-71
2021/01/09 08:02:30;;;;;;;29.27;13.50;;;1.30;99.90;;;;;;5074015;28;20246;-71
2021/01/09 08:05:08;;;;;;;26.42;16.90;;;1.40;99.90;;;;;;5073763;28;20199;-71
2021/01/09 08:07:36;;;;;;;30.92;17.25;;;1.40;99.90;;;;;;5073665;28;20250;-71
2021/01/09 08:10:24;;;;;;;29.65;15.35;;;1.50;99.90;;;;;;5073657;28;20712;-71
2021/01/09 08:12:55;;;;;;;27.80;15.82;;;1.40;99.90;;;;;;5073357;28;20582;-71
2021/01/09 08:15:22;;;;;;;28.65;15.88;;;1.40;99.90;;;;;;5073489;28;20582;-71
2021/01/09 08:17:49;;;;;;;28.95;14.73;;;1.40;99.90;;;;;;5073490;28;20230;-71
2021/01/09 08:20:18;;;;;;;57.13;21.80;;;1.40;99.90;;;;;;5073438;28;20196;-71
2021/01/09 08:22:55;;;;;;;57.78;24.05;;;1.20;99.90;;;;;;5073184;28;20583;-71
2021/01/09 08:25:23;;;;;;;61.47;23.67;;;1.00;99.90;;;;;;5073195;28;20203;-71
2021/01/09 08:27:51;;;;;;;43.17;20.50;;;1.00;99.90;;;;;;5073389;28;20199;-71
2021/01/09 08:30:20;;;;;;;39.05;19.55;;;1.00;1.00;;;;;;5073164;28;20656;-71
2021/01/09 08:32:47;;;;;;;45.17;19.52;;;1.10;1.00;;;;;;5073734;28;20239;-72
2021/01/09 08:35:15;;;;;;;53.00;23.17;;;1.10;1.00;;;;;;5073416;28;20250;-71
2021/01/09 08:37:41;;;;;;;46.17;21.48;;;1.20;1.00;;;;;;5072716;28;20801;-71
2021/01/09 08:40:12;;;;;;;42.28;20.75;;;1.30;1.00;;;;;;5073085;28;20197;-71
2021/01/09 08:42:38;;;;;;;38.95;17.17;;;1.30;1.00;;;;;;5073080;28;20219;-71
2021/01/09 08:45:05;;;;;;;58.45;24.70;;;1.20;1.00;;;;;;5073230;28;20197;-71
2021/01/09 08:47:32;;;;;;;44.85;20.58;;;1.30;1.00;;;;;;5073472;28;20275;-71
2021/01/09 08:50:02;;;;;;;50.38;21.00;;;1.30;1.00;;;;;;5073729;28;20204;-71
2021/01/09 08:52:33;;;;;;;50.90;21.38;;;1.40;1.00;;;;;;5073296;28;20224;-72
2021/01/09 08:55:00;;;;;;;56.42;22.10;;;1.50;1.00;;;;;;5073147;28;20204;-71
2021/01/09 08:57:26;;;;;;;63.80;25.92;;;1.60;1.00;;;;;;5073081;28;20197;-72
2021/01/09 08:59:53;;;;;;;60.17;29.40;;;1.60;1.00;;;;;;5072419;28;20672;-71
2021/01/09 09:02:22;;;;;;;58.20;23.45;;;1.70;1.00;;;;;;5072464;28;20220;-71
2021/01/09 09:04:51;;;;;;;63.95;25.17;;;1.60;1.00;;;;;;5072574;28;20261;-72
2021/01/09 09:07:21;;;;;;;43.38;19.02;;;1.50;1.00;;;;;;5072964;28;20273;-72
2021/01/09 09:09:48;;;;;;;46.60;20.45;;;1.40;1.00;;;;;;5072580;28;20196;-72
2021/01/09 09:12:24;;;;;;;70.93;22.58;;;1.40;1.00;;;;;;5071929;28;20634;-72
2021/01/09 09:14:56;;;;;;;55.47;18.48;;;1.50;1.00;;;;;;5072558;28;20235;-72
2021/01/09 09:17:24;;;;;;;57.80;21.58;;;1.60;1.00;;;;;;5072475;28;20192;-72
2021/01/09 09:19:51;;;;;;;55.63;21.58;;;1.70;1.00;;;;;;5072413;28;20279;-72
2021/01/09 09:22:27;;;;;;;51.10;19.13;;;1.60;1.00;;;;;;5072134;28;20225;-73
2021/01/09 09:24:55;;;;;;;55.63;21.70;;;1.70;1.00;;;;;;5071975;28;20207;-72
2021/01/09 09:27:23;;;;;;;53.60;22.58;;;1.70;99.90;;;;;;5072519;28;20196;-72
2021/01/09 09:29:49;;;;;;;79.13;27.88;;;1.70;99.90;;;;;;5072174;28;20196;-72
2021/01/09 09:32:26;;;;;;;72.18;28.20;;;1.80;99.90;;;;;;5072308;28;20213;-73
2021/01/09 09:34:53;;;;;;;71.15;24.15;;;1.80;99.90;;;;;;5068879;28;20237;-72
2021/01/09 09:37:19;;;;;;;70.28;24.02;;;1.90;1.00;;;;;;5071621;28;20215;-72
2021/01/09 09:39:45;;;;;;;75.95;25.25;;;2.00;1.00;;;;;;5071901;28;20201;-72
2021/01/09 09:42:12;;;;;;;57.58;22.73;;;1.90;1.00;;;;;;5072015;28;20236;-73
2021/01/09 09:44:40;;;;;;;55.17;21.80;;;2.00;99.90;;;;;;5072225;28;20252;-73
2021/01/09 09:47:07;;;;;;;72.40;23.88;;;2.10;99.90;;;;;;5071554;28;20208;-71
2021/01/09 09:49:36;;;;;;;56.63;21.80;;;2.10;99.90;;;;;;5071808;28;20202;-71
2021/01/09 09:52:03;;;;;;;41.80;20.67;;;2.20;99.90;;;;;;5071482;28;20258;-71
2021/01/09 09:54:30;;;;;;;66.13;25.77;;;2.20;99.90;;;;;;5071905;28;20202;-72
2021/01/09 09:56:57;;;;;;;46.45;18.73;;;2.10;99.90;;;;;;5072095;28;20196;-72
2021/01/09 09:59:29;;;;;;;56.78;23.73;;;2.00;99.90;;;;;;5072249;28;20564;-71
2021/01/09 10:01:59;;;;;;;59.60;24.67;;;2.00;99.90;;;;;;5071839;28;20225;-72
2021/01/09 10:04:26;;;;;;;58.78;25.10;;;2.20;99.90;;;;;;5071722;28;20285;-72
2021/01/09 10:06:52;;;;;;;67.15;26.35;;;2.20;99.90;;;;;;5071417;28;20212;-72
2021/01/09 10:09:20;;;;;;;66.22;24.60;;;2.00;99.90;;;;;;5071863;28;20201;-72
2021/01/09 10:11:48;;;;;;;63.92;25.27;;;2.10;99.90;;;;;;5071523;28;20570;-71
2021/01/09 10:14:15;;;;;;;50.88;22.50;;;2.00;99.90;;;;;;5071538;28;20292;-71
2021/01/09 10:16:42;;;;;;;59.40;24.77;;;1.80;99.90;;;;;;5071058;28;20205;-71
2021/01/09 10:19:09;;;;;;;76.93;25.77;;;1.90;99.90;;;;;;5071389;28;20204;-71
2021/01/09 10:21:36;;;;;;;65.30;24.13;;;1.80;99.90;;;;;;5071673;28;20231;-71
2021/01/09 10:24:03;;;;;;;60.40;23.55;;;1.80;99.90;;;;;;5075588;28;20682;-71
2021/01/09 10:26:30;;;;;;;49.17;22.60;;;1.90;99.90;;;;;;5076126;28;20196;-72
2021/01/09 10:28:57;;;;;;;56.97;26.45;;;1.90;99.90;;;;;;5073211;28;20222;-71
2021/01/09 10:31:42;;;;;;;64.32;24.40;;;2.10;99.90;;;;;;5074671;28;20188;-71
2021/01/09 10:34:27;;;;;;;70.97;26.77;;;2.50;1.00;;;;;;5075260;28;20203;-71
2021/01/09 10:37:15;;;;;;;71.40;26.90;;;2.70;1.00;;;;;;5074920;28;20213;-70
2021/01/09 10:45:48;;;;;;;84.32;29.48;;;3.10;99.90;;;;;;5074537;28;20173;-71
2021/01/09 10:51:44;;;;;;;61.63;25.05;;;2.40;1.00;;;;;;5074275;28;20797;-73
2021/01/09 10:54:13;;;;;;;61.22;23.00;;;2.30;1.00;;;;;;5074347;28;20200;-73
2021/01/09 10:56:44;;;;;;;76.57;28.08;;;2.30;15.00;;;;;;5074113;28;20374;-69
2021/01/09 10:59:15;;;;;;;77.28;29.38;;;2.10;1.00;;;;;;5074722;28;20203;-70
2021/01/09 11:01:41;;;;;;;75.72;30.38;;;2.10;99.90;;;;;;5073974;28;20216;-67
2021/01/09 11:04:08;;;;;;;66.25;26.88;;;2.10;99.90;;;;;;5074767;28;20207;-67
2021/01/09 11:06:34;;;;;;;51.85;25.65;;;2.10;99.90;;;;;;5074146;28;20264;-69
2021/01/09 11:09:01;;;;;;;56.88;23.73;;;2.20;99.90;;;;;;5074352;28;20227;-67
2021/01/09 11:11:27;;;;;;;46.42;23.15;;;2.30;99.90;;;;;;5073440;28;20643;-67
2021/01/09 11:13:54;;;;;;;38.67;20.00;;;2.30;99.90;;;;;;5073004;28;20266;-67
2021/01/09 11:16:20;;;;;;;44.58;21.20;;;2.30;99.90;;;;;;5074081;28;20198;-68
2021/01/09 11:18:47;;;;;;;48.03;21.75;;;2.30;99.90;;;;;;5073977;28;20203;-69
2021/01/09 11:21:14;;;;;;;38.30;22.00;;;2.40;99.90;;;;;;5073986;28;20224;-67
2021/01/09 11:23:42;;;;;;;46.45;21.27;;;2.50;99.90;;;;;;5073771;28;20225;-68
2021/01/09 11:26:09;;;;;;;36.22;19.23;;;2.40;99.90;;;;;;5073895;28;20572;-68
2021/01/09 11:28:35;;;;;;;39.35;19.95;;;2.40;99.90;;;;;;5074011;28;20201;-69
2021/01/09 11:31:02;;;;;;;43.50;22.13;;;2.40;99.90;;;;;;5073467;28;20668;-68
2021/01/09 11:33:28;;;;;;;43.70;20.77;;;2.40;99.90;;;;;;5073155;28;20320;-69
2021/01/09 11:35:57;;;;;;;35.85;21.85;;;2.40;99.90;;;;;;5073766;28;20278;-69
2021/01/09 11:38:23;;;;;;;38.05;22.48;;;2.40;99.90;;;;;;5073905;28;20196;-68
2021/01/09 11:40:51;;;;;;;38.03;20.60;;;2.40;99.90;;;;;;5073504;28;20241;-68
2021/01/09 11:43:18;;;;;;;32.63;18.92;;;2.40;99.90;;;;;;5073877;28;20209;-69
2021/01/09 11:45:45;;;;;;;35.03;18.83;;;2.40;99.90;;;;;;5073622;28;20192;-68
2021/01/09 11:48:14;;;;;;;42.10;19.73;;;2.40;98.10;;;;;;5073711;28;20208;-69
2021/01/09 11:50:43;;;;;;;35.08;18.33;;;2.20;86.70;;;;;;5073190;28;20259;-68
2021/01/09 11:53:09;;;;;;;44.28;20.63;;;2.20;39.00;;;;;;5073589;28;20220;-67
2021/01/09 11:55:35;;;;;;;36.10;17.55;;;2.20;86.10;;;;;;5073419;28;20205;-67
2021/01/09 11:58:02;;;;;;;37.72;18.88;;;2.20;29.90;;;;;;5074002;28;20266;-67
2021/01/09 12:00:29;;;;;;;34.00;18.77;;;2.20;54.60;;;;;;5073234;28;20225;-67
2021/01/09 12:02:55;;;;;;;31.80;17.13;;;2.30;49.30;;;;;;5073277;28;20222;-66
2021/01/09 12:05:21;;;;;;;39.35;18.27;;;2.20;44.40;;;;;;5073270;28;20216;-70
2021/01/09 12:07:48;;;;;;;27.20;15.82;;;2.00;1.00;;;;;;5073449;28;20283;-68
2021/01/09 12:10:14;;;;;;;31.58;19.45;;;2.00;99.90;;;;;;5073275;28;20228;-66
2021/01/09 12:12:40;;;;;;;27.77;18.52;;;2.10;99.90;;;;;;5072187;28;20728;-65
2021/01/09 12:15:08;;;;;;;33.45;18.08;;;2.10;99.90;;;;;;5072693;28;20212;-65
2021/01/09 12:17:35;;;;;;;39.55;17.33;;;2.10;99.90;;;;;;5072974;28;20203;-66
2021/01/09 12:20:01;;;;;;;27.60;15.90;;;2.20;99.90;;;;;;5072451;28;20210;-67
2021/01/09 12:22:34;;;;;;;31.83;18.33;;;2.20;99.90;;;;;;5072711;28;20586;-70
2021/01/09 12:25:01;;;;;;;26.25;15.57;;;2.10;99.90;;;;;;5071138;28;20243;-69
2021/01/09 12:27:29;;;;;;;27.35;15.20;;;2.10;99.90;;;;;;5072857;28;20205;-68
2021/01/09 12:29:55;;;;;;;26.17;14.05;;;1.90;99.90;;;;;;5072837;28;20275;-68
2021/01/09 12:32:40;;;;;;;27.17;13.73;;;2.00;99.90;;;;;;5072728;28;20285;-68
2021/01/09 12:41:37;;;;;;;33.90;18.90;;;2.20;99.90;;;;;;5049948;28;20209;-69
2021/01/09 12:47:51;;;;;;;40.90;19.83;;;2.30;99.90;;;;;;5072660;28;20180;-71
2021/01/09 12:53:48;;;;;;;38.90;16.50;;;2.00;99.90;;;;;;5073002;28;20203;-70
2021/01/09 12:56:17;;;;;;;33.38;19.60;;;1.70;99.90;;;;;;5072927;28;20567;-70
2021/01/09 12:58:43;;;;;;;36.33;20.17;;;1.90;99.90;;;;;;5071940;28;20661;-70
2021/01/09 13:01:18;;;;;;;47.22;24.35;;;2.00;1.00;;;;;;5071811;28;20704;-68
2021/01/09 13:03:53;;;;;;;41.83;19.25;;;2.00;1.00;;;;;;5071810;28;20222;-68
2021/01/09 13:06:20;;;;;;;34.50;18.90;;;2.10;1.00;;;;;;5071979;28;20197;-69
2021/01/09 13:12:20;;;;;;;81.57;27.85;;;2.00;99.90;;;;;;5044314;28;20215;-69